Time;durP1;ratioP1;P1;durP2;ratioP2;P2;SDS_P1;SDS_P2;PMS_P1;PMS_P2;Temp;Humidity;BMP_temperature;BMP_pressure;BME280_temperature;BME280_humidity;BME280_pressure;Samples;Min_cycle;Max_cycle;Signal;HPM_P1;HPM_P2
2021/06/23 02:11:34;;;;;;;;;;;;;;;19.22;89.05;100412.73;1766105;79;21019;-37
2021/06/23 02:14:21;;;;;;;21.55;2.50;;;;;;;19.25;88.58;100412.55;1752458;79;20462;-39
2021/06/23 02:16:51;;;;;;;14.80;2.87;;;;;;;19.27;88.22;100419.00;1751117;79;21497;-37
2021/06/23 02:19:21;;;;;;;29.30;3.15;;;;;;;19.30;87.68;100418.83;1746235;79;21170;-39
2021/06/23 02:21:56;;;;;;;23.55;2.60;;;;;;;19.33;87.58;100415.58;1775403;79;21015;-39
2021/06/23 02:24:24;;;;;;;11.30;2.77;;;;;;;19.38;87.49;100414.02;1696424;82;20943;-39
2021/06/23 02:26:56;;;;;;;8.98;2.25;;;;;;;19.44;87.40;100421.55;1752575;79;20991;-39
2021/06/23 02:29:25;;;;;;;17.30;3.05;;;;;;;19.49;87.04;100411.62;1690247;82;20996;-40
2021/06/23 02:31:53;;;;;;;14.25;2.80;;;;;;;19.52;86.76;100410.13;1765758;79;22947;-39
2021/06/23 02:34:21;;;;;;;9.80;2.45;;;;;;;19.59;86.84;100415.89;1734973;79;20956;-38
2021/06/23 02:37:08;;;;;;;7.70;2.65;;;;;;;19.64;86.71;100413.02;1706384;82;21017;-39
2021/06/23 02:39:37;;;;;;;16.10;3.47;;;;;;;19.70;86.36;100417.91;1771921;79;21003;-40
2021/06/23 02:42:05;;;;;;;13.53;2.92;;;;;;;19.75;86.02;100413.22;1702342;82;21040;-40
2021/06/23 02:44:33;;;;;;;16.40;2.90;;;;;;;19.84;85.62;100420.21;1700054;82;21233;-39
2021/06/23 02:47:00;;;;;;;11.48;2.50;;;;;;;19.90;85.28;100413.28;1764071;79;20968;-39
2021/06/23 02:49:28;;;;;;;17.87;2.75;;;;;;;19.96;84.67;100410.31;1781489;79;20928;-39
2021/06/23 02:51:58;;;;;;;18.55;3.05;;;;;;;20.04;84.53;100411.19;1759024;79;20980;-40
2021/06/23 02:54:25;;;;;;;31.10;4.40;;;;;;;20.12;84.62;100405.00;1764292;79;21056;-41
2021/06/23 02:57:06;;;;;;;23.77;4.08;;;;;;;20.22;84.38;100410.55;1751625;80;21068;-39
2021/06/23 02:59:34;;;;;;;25.45;3.20;;;;;;;20.31;84.01;100417.05;1768528;79;20971;-39
2021/06/23 03:02:01;;;;;;;19.17;3.35;;;;;;;20.38;83.41;100411.33;1760575;79;20897;-39
2021/06/23 03:04:28;;;;;;;13.13;3.15;;;;;;;20.47;82.84;100415.65;1768397;79;20973;-39
2021/06/23 03:07:10;;;;;;;17.77;3.15;;;;;;;20.52;82.20;100412.27;1770902;79;21003;-40
2021/06/23 03:09:38;;;;;;;22.07;3.75;;;;;;;20.56;81.95;100419.02;1762943;79;21126;-39
2021/06/23 03:12:08;;;;;;;16.85;3.60;;;;;;;20.60;81.95;100419.23;1763237;79;20968;-40
2021/06/23 03:14:41;;;;;;;25.25;3.30;;;;;;;20.62;81.96;100422.61;1764712;79;21449;-38
2021/06/23 03:17:08;;;;;;;17.52;3.10;;;;;;;20.65;81.97;100422.88;1788762;79;20999;-39
2021/06/23 03:19:36;;;;;;;14.10;2.85;;;;;;;20.66;81.67;100433.77;1770380;79;21023;-39
2021/06/23 03:22:07;;;;;;;14.30;2.98;;;;;;;20.66;81.44;100428.05;1750906;79;21097;-38
2021/06/23 03:24:37;;;;;;;14.20;3.40;;;;;;;20.67;81.22;100438.95;1749006;79;20968;-37
2021/06/23 03:27:05;;;;;;;10.93;2.52;;;;;;;20.68;81.17;100439.31;1743510;79;20972;-38
2021/06/23 03:29:33;;;;;;;6.12;2.50;;;;;;;20.70;80.88;100448.41;1754737;79;20964;-39
2021/06/23 03:32:05;;;;;;;6.92;3.22;;;;;;;20.73;80.86;100450.87;1746555;79;20929;-38
2021/06/23 03:34:31;;;;;;;13.28;2.60;;;;;;;20.76;80.71;100439.31;1753428;79;21513;-38
2021/06/23 03:37:02;;;;;;;15.53;2.50;;;;;;;20.80;80.40;100444.33;1744339;80;20932;-38
2021/06/23 03:39:33;;;;;;;5.33;2.47;;;;;;;20.85;80.16;100440.56;1691716;82;21031;-39
2021/06/23 03:42:01;;;;;;;8.73;2.15;;;;;;;20.87;79.61;100436.91;1743083;81;21534;-40
2021/06/23 03:44:27;;;;;;;11.80;3.02;;;;;;;20.92;79.28;100437.91;1744756;79;21004;-41
2021/06/23 03:46:55;;;;;;;15.13;2.50;;;;;;;20.98;78.93;100448.08;1757650;80;21156;-39
2021/06/23 03:49:23;;;;;;;12.03;2.55;;;;;;;21.02;78.49;100455.29;1748132;79;20916;-40
2021/06/23 03:51:50;;;;;;;9.28;2.40;;;;;;;21.05;78.43;100459.90;1743102;79;20968;-38
2021/06/23 03:54:18;;;;;;;7.78;2.20;;;;;;;21.09;78.35;100460.53;1769814;80;21023;-41
2021/06/23 03:56:46;;;;;;;13.70;2.62;;;;;;;21.14;78.15;100462.43;1745919;79;20973;-39
2021/06/23 03:59:13;;;;;;;10.30;2.47;;;;;;;21.18;77.81;100466.55;1770533;79;21120;-38
2021/06/23 04:01:40;;;;;;;20.05;2.52;;;;;;;21.23;77.69;100468.91;1743310;80;21003;-40
2021/06/23 04:04:08;;;;;;;7.17;2.37;;;;;;;21.28;77.39;100461.55;1767151;80;20980;-41
2021/06/23 04:06:36;;;;;;;12.93;2.52;;;;;;;21.33;77.05;100464.73;1707279;79;21074;-40
2021/06/23 04:09:05;;;;;;;14.73;2.67;;;;;;;21.40;76.91;100463.87;1757001;79;21051;-39
2021/06/23 04:11:31;;;;;;;13.40;2.47;;;;;;;21.49;76.75;100463.27;1721473;79;21087;-39
2021/06/23 04:13:59;;;;;;;10.98;2.33;;;;;;;21.60;76.79;100471.80;1708005;84;21533;-39
2021/06/23 04:16:27;;;;;;;15.48;2.55;;;;;;;21.72;76.55;100474.59;1715504;81;20952;-40
2021/06/23 04:18:54;;;;;;;11.22;2.45;;;;;;;21.81;76.60;100481.42;1724027;82;21513;-40
2021/06/23 04:21:21;;;;;;;10.72;2.40;;;;;;;21.92;76.46;100486.48;1733857;82;21019;-40
2021/06/23 04:23:48;;;;;;;7.42;2.52;;;;;;;22.00;76.39;100489.45;1737343;82;21073;-38
2021/06/23 04:26:15;;;;;;;12.40;2.50;;;;;;;22.08;75.59;100474.45;1723076;82;20977;-38
2021/06/23 04:28:42;;;;;;;14.93;3.00;;;;;;;22.19;74.93;100484.27;1717924;82;21059;-40
2021/06/23 04:31:09;;;;;;;12.65;2.90;;;;;;;22.28;74.07;100478.38;1712968;82;20968;-39
2021/06/23 04:33:36;;;;;;;12.45;2.77;;;;;;;22.38;72.87;100482.55;1716719;82;21020;-38
2021/06/23 04:36:05;;;;;;;7.92;2.00;;;;;;;22.52;71.90;100488.23;1723779;82;21916;-39
2021/06/23 04:38:32;;;;;;;10.88;2.30;;;;;;;22.60;71.55;100484.58;1723524;82;21043;-40
2021/06/23 04:40:59;;;;;;;8.73;2.20;;;;;;;22.71;71.12;100485.16;1729695;82;21526;-39
2021/06/23 04:43:27;;;;;;;9.35;2.02;;;;;;;22.81;70.72;100469.53;1709501;82;20941;-40
2021/06/23 04:45:54;;;;;;;8.90;2.25;;;;;;;22.92;70.13;100472.28;1713584;82;21039;-40
2021/06/23 04:48:22;;;;;;;8.30;2.98;;;;;;;23.05;69.49;100474.04;1651804;86;21520;-40
2021/06/23 04:50:49;;;;;;;9.53;2.67;;;;;;;23.21;68.88;100477.28;1716448;82;21019;-40
2021/06/23 04:53:20;;;;;;;11.60;2.80;;;;;;;23.44;68.93;100480.09;1729462;82;21348;-37
2021/06/23 04:55:49;;;;;;;17.95;3.05;;;;;;;23.70;68.78;100478.67;1727843;82;20965;-38
2021/06/23 04:58:17;;;;;;;13.05;2.75;;;;;;;24.01;68.20;100493.59;1721166;82;20929;-39
2021/06/23 05:00:45;;;;;;;7.50;2.02;;;;;;;24.34;67.21;100491.98;1711867;82;21222;-38
2021/06/23 05:03:14;;;;;;;15.08;2.25;;;;;;;24.63;64.34;100486.75;1716603;82;21529;-38
2021/06/23 05:05:40;;;;;;;16.20;2.83;;;;;;;24.87;63.36;100491.95;1716949;82;21450;-38
2021/06/23 05:08:06;;;;;;;15.60;2.05;;;;;;;25.03;60.67;100494.72;1724682;82;20941;-38
2021/06/23 05:10:33;;;;;;;9.53;2.42;;;;;;;25.09;61.04;100495.09;1734273;80;20961;-39
2021/06/23 05:13:00;;;;;;;11.55;2.65;;;;;;;25.13;60.30;100502.28;1771578;79;21150;-39
2021/06/23 05:15:27;;;;;;;16.35;3.15;;;;;;;25.12;60.20;100512.52;1764399;79;21042;-38
2021/06/23 05:17:54;;;;;;;9.90;3.52;;;;;;;25.12;60.15;100523.11;1754136;79;20916;-38
2021/06/23 05:20:23;;;;;;;14.83;4.10;;;;;;;25.06;60.68;100518.30;1759761;79;21120;-39
2021/06/23 05:22:51;;;;;;;21.48;3.42;;;;;;;25.05;60.37;100521.91;1750768;79;21321;-39
2021/06/23 05:25:18;;;;;;;17.37;3.35;;;;;;;25.03;60.62;100518.55;1747946;79;21144;-38
2021/06/23 05:27:44;;;;;;;10.85;3.22;;;;;;;25.00;60.77;100518.30;1749718;79;20909;-38
2021/06/23 05:30:12;;;;;;;13.32;3.20;;;;;;;24.97;61.18;100523.84;1760772;79;20980;-39
2021/06/23 05:32:38;;;;;;;14.07;3.25;;;;;;;24.98;61.62;100519.40;1745177;79;20944;-39
2021/06/23 05:35:06;;;;;;;21.00;4.12;;;;;;;25.01;60.85;100520.48;1765107;79;20996;-38
2021/06/23 05:37:33;;;;;;;15.08;3.40;;;;;;;25.03;60.67;100527.81;1775800;79;21867;-39
2021/06/23 05:39:59;;;;;;;16.50;3.80;;;;;;;25.10;61.15;100535.16;1795471;79;20984;-38
2021/06/23 05:42:25;;;;;;;21.87;3.83;;;;;;;25.17;61.28;100540.82;1751262;79;21124;-39
2021/06/23 05:44:51;;;;;;;17.20;3.95;;;;;;;25.26;61.73;100537.89;1744553;79;21047;-39
2021/06/23 05:47:18;;;;;;;14.55;3.87;;;;;;;25.38;61.13;100538.26;1746714;79;21043;-38
2021/06/23 05:49:45;;;;;;;17.42;3.58;;;;;;;25.52;59.88;100545.63;1762230;79;21260;-41
2021/06/23 05:52:11;;;;;;;21.93;4.00;;;;;;;25.60;59.98;100541.86;1767468;79;21027;-39
2021/06/23 05:54:37;;;;;;;11.53;2.77;;;;;;;25.67;59.53;100545.69;1752469;79;20969;-40
2021/06/23 05:57:05;;;;;;;18.60;3.47;;;;;;;25.73;58.60;100552.31;1725040;83;20941;-40
2021/06/23 05:59:33;;;;;;;15.38;3.20;;;;;;;25.74;58.55;100553.14;1753746;79;20992;-40
2021/06/23 06:01:59;;;;;;;11.50;3.30;;;;;;;25.73;58.37;100548.33;1762389;79;21063;-41
2021/06/23 06:04:25;;;;;;;17.73;3.20;;;;;;;25.74;58.70;100553.99;1760561;79;21023;-40
2021/06/23 06:06:52;;;;;;;17.35;3.02;;;;;;;25.81;58.48;100549.87;1775593;79;21127;-40
2021/06/23 06:09:18;;;;;;;20.32;3.12;;;;;;;25.93;58.80;100555.97;1707111;82;21656;-40
2021/06/23 06:11:46;;;;;;;15.35;3.10;;;;;;;26.15;57.05;100558.68;1760988;79;21446;-41
2021/06/23 06:14:14;;;;;;;20.35;3.08;;;;;;;26.22;57.32;100555.39;1747981;80;21065;-40
2021/06/23 06:16:40;;;;;;;12.70;2.58;;;;;;;26.33;56.10;100545.72;1751578;80;20952;-41
2021/06/23 06:19:07;;;;;;;10.40;2.95;;;;;;;26.39;56.65;100546.52;1754065;79;20992;-40
2021/06/23 06:21:33;;;;;;;9.13;2.77;;;;;;;26.49;56.62;100551.89;1773753;79;21026;-40
2021/06/23 06:24:00;;;;;;;17.40;3.40;;;;;;;26.60;57.03;100550.48;1751624;79;20996;-41
2021/06/23 06:26:29;;;;;;;10.53;2.92;;;;;;;26.73;57.73;100550.77;1747660;79;21130;-38
2021/06/23 06:28:56;;;;;;;19.48;3.90;;;;;;;26.82;56.98;100558.80;1755272;79;20979;-38
2021/06/23 06:31:24;;;;;;;16.32;3.10;;;;;;;26.77;56.14;100576.08;1766047;79;21031;-39
2021/06/23 06:35:58;;;;;;;15.18;2.90;;;;;;;26.58;56.36;100570.17;1791324;78;22601;-40
2021/06/23 06:38:25;;;;;;;8.25;2.87;;;;;;;26.42;56.71;100573.28;1749439;81;21608;-38
2021/06/23 06:40:51;;;;;;;14.38;3.75;;;;;;;26.36;57.33;100573.31;1714018;82;22484;-39
2021/06/23 06:43:18;;;;;;;16.20;4.05;;;;;;;26.43;58.41;100580.27;1714707;81;21530;-39
2021/06/23 06:45:46;;;;;;;10.45;3.33;;;;;;;26.50;57.94;100580.11;1711344;83;20964;-38
2021/06/23 06:48:12;;;;;;;11.70;3.58;;;;;;;26.58;57.47;100583.45;1701266;83;20960;-39
2021/06/23 06:50:40;;;;;;;20.15;3.65;;;;;;;26.64;57.72;100577.11;1677178;84;20976;-38
2021/06/23 06:53:06;;;;;;;14.70;4.20;;;;;;;26.69;57.89;100578.05;1675625;84;21228;-39
2021/06/23 06:55:33;;;;;;;15.48;4.35;;;;;;;26.70;57.88;100585.55;1701915;84;21627;-37
2021/06/23 06:57:59;;;;;;;23.10;3.83;;;;;;;26.75;58.38;100592.63;1698242;84;21711;-40
2021/06/23 07:00:26;;;;;;;9.45;4.50;;;;;;;26.81;58.11;100592.95;1672504;84;21038;-41
2021/06/23 07:02:54;;;;;;;22.13;4.30;;;;;;;26.89;57.35;100604.25;1661477;85;21373;-41
2021/06/23 07:05:23;;;;;;;16.52;4.17;;;;;;;26.94;57.75;100600.73;1703740;83;21103;-38
2021/06/23 07:07:49;;;;;;;16.15;4.35;;;;;;;27.04;58.14;100600.79;1673112;84;22190;-39
2021/06/23 07:10:15;;;;;;;16.40;4.78;;;;;;;27.15;58.33;100589.70;1686812;84;21519;-40
2021/06/23 07:12:42;;;;;;;16.95;4.60;;;;;;;27.30;58.11;100596.83;1685769;84;21547;-40
2021/06/23 07:29:46;;;;;;;21.95;4.75;;;;;;;28.49;56.35;100580.08;1812552;77;22766;-39
2021/06/23 07:32:24;;;;;;;21.73;5.17;;;;;;;28.91;55.53;100581.55;1766223;79;21057;-39
2021/06/23 07:37:11;;;;;;;15.55;4.72;;;;;;;29.72;53.06;100576.52;1758974;80;20924;-41
2021/06/23 07:39:38;;;;;;;24.00;5.83;;;;;;;30.18;52.05;100568.45;1766533;79;20918;-40
2021/06/23 07:42:08;;;;;;;28.80;5.12;;;;;;;30.63;51.87;100571.49;1783557;79;21014;-40
2021/06/23 07:47:06;;;;;;;19.42;5.00;;;;;;;31.57;49.32;100557.88;1763294;79;21133;-39
2021/06/23 07:49:36;;;;;;;23.27;5.53;;;;;;;31.83;48.53;100565.83;1767865;79;21114;-40
2021/06/23 07:54:48;;;;;;;32.03;5.12;;;;;;;32.14;47.95;100566.98;1750615;80;20979;-40
2021/06/23 08:10:45;;;;;;;16.80;5.03;;;;;;;32.27;48.77;100565.99;1763643;79;21004;-41
2021/06/23 08:13:12;;;;;;;21.07;5.35;;;;;;;32.45;47.20;100556.45;1760063;80;21139;-40
2021/06/23 08:15:45;;;;;;;11.95;4.30;;;;;;;32.49;46.54;100560.46;1759098;79;21509;-40
2021/06/23 08:18:14;;;;;;;20.27;5.15;;;;;;;32.49;45.10;100556.44;1776042;79;21122;-40
2021/06/23 08:20:43;;;;;;;61.90;10.68;;;;;;;32.31;46.48;100561.97;1696931;82;21003;-41
2021/06/23 08:23:09;;;;;;;18.15;5.42;;;;;;;32.21;46.35;100568.83;1709337;81;21029;-40
2021/06/23 08:25:36;;;;;;;25.40;5.53;;;;;;;32.37;45.22;100576.56;1731803;82;21111;-40
2021/06/23 08:28:03;;;;;;;18.20;5.95;;;;;;;32.55;45.44;100596.45;1775670;79;20975;-39
2021/06/23 08:30:31;;;;;;;15.88;5.67;;;;;;;32.78;44.50;100603.77;1724805;81;21022;-40
2021/06/23 08:33:01;;;;;;;36.48;6.08;;;;;;;32.98;43.82;100599.40;1739463;81;20941;-41
2021/06/23 08:35:28;;;;;;;18.50;6.00;;;;;;;33.01;45.49;100595.03;1722752;82;21528;-41
2021/06/23 08:37:55;;;;;;;16.93;5.37;;;;;;;33.11;44.53;100596.98;1717168;82;21138;-41
2021/06/23 08:40:22;;;;;;;15.35;5.90;;;;;;;33.05;43.74;100599.03;1722383;82;21001;-40
2021/06/23 08:42:48;;;;;;;21.05;6.50;;;;;;;33.02;43.50;100605.56;1719036;81;20967;-40
2021/06/23 08:45:16;;;;;;;17.55;5.45;;;;;;;33.12;43.77;100607.22;1720811;82;21093;-39
2021/06/23 08:47:47;;;;;;;15.90;5.65;;;;;;;33.19;44.10;100603.64;1721630;82;21542;-40
2021/06/23 08:50:20;;;;;;;17.80;5.00;;;;;;;33.23;45.01;100606.83;1719715;81;21179;-40
2021/06/23 08:52:46;;;;;;;26.17;6.92;;;;;;;33.38;43.51;100612.28;1719175;81;20980;-41
2021/06/23 08:55:20;;;;;;;19.07;5.60;;;;;;;33.53;44.76;100607.89;1724017;82;20968;-41
2021/06/23 08:57:48;;;;;;;11.95;5.10;;;;;;;33.71;42.86;100601.39;1714847;82;22429;-40
2021/06/23 09:00:16;;;;;;;21.82;5.90;;;;;;;33.89;42.99;100608.33;1708800;82;21063;-40
2021/06/23 09:02:44;;;;;;;21.15;5.50;;;;;;;34.06;42.11;100602.36;1710787;82;21131;-40
2021/06/23 09:05:15;;;;;;;27.22;6.62;;;;;;;34.13;42.02;100598.45;1703294;81;20982;-40
2021/06/23 09:07:49;;;;;;;33.42;7.47;;;;;;;34.23;41.17;100601.70;1709467;82;20942;-40
2021/06/23 09:10:26;;;;;;;22.00;5.30;;;;;;;34.17;41.71;100594.38;1718852;82;21000;-40
2021/06/23 09:13:07;;;;;;;15.95;5.12;;;;;;;34.24;42.49;100598.85;1699250;82;21042;-40
2021/06/23 09:16:00;;;;;;;23.85;5.15;;;;;;;34.48;41.20;100604.17;1716922;81;21048;-40
2021/06/23 09:18:33;;;;;;;21.87;7.90;;;;;;;34.63;40.28;100599.69;1710093;82;21621;-40
2021/06/23 09:21:18;;;;;;;61.10;9.28;;;;;;;34.81;41.01;100597.16;1711894;82;21026;-41
2021/06/23 09:23:54;;;;;;;16.62;4.62;;;;;;;34.97;39.27;100592.10;1705952;82;21048;-40
2021/06/23 09:26:27;;;;;;;66.70;10.78;;;;;;;35.05;39.15;100587.98;1704793;83;21657;-40
2021/06/23 09:29:09;;;;;;;22.07;5.00;;;;;;;35.00;40.22;100594.44;1769522;80;21201;-41
2021/06/23 09:31:59;;;;;;;20.52;4.53;;;;;;;35.21;40.15;100593.66;1765590;79;20933;-40
2021/06/23 09:34:33;;;;;;;19.27;5.05;;;;;;;35.47;38.48;100589.62;1777291;79;21659;-41
2021/06/23 09:37:25;;;;;;;17.62;4.50;;;;;;;35.51;37.45;100591.45;1759998;79;20988;-40
2021/06/23 09:40:16;;;;;;;19.65;5.37;;;;;;;35.48;37.14;100591.28;1760595;80;21027;-45
2021/06/23 09:42:48;;;;;;;25.85;9.80;;;;;;;35.37;37.98;100591.79;1713410;82;21152;-41
2021/06/23 09:45:16;;;;;;;19.07;5.03;;;;;;;35.41;39.76;100591.73;1703483;82;21450;-40
2021/06/23 09:47:45;;;;;;;27.37;5.37;;;;;;;35.61;39.45;100588.46;1760338;80;20957;-40
2021/06/23 09:50:22;;;;;;;30.32;5.45;;;;;;;35.87;38.77;100593.79;1763609;80;21513;-41
2021/06/23 09:53:13;;;;;;;25.65;5.72;;;;;;;36.08;37.51;100595.16;1767285;79;20963;-41
2021/06/23 09:55:41;;;;;;;18.05;5.30;;;;;;;36.13;38.19;100597.28;1767068;79;21960;-39
2021/06/23 09:58:19;;;;;;;27.58;6.28;;;;;;;36.16;37.33;100600.92;1769435;79;21012;-39
2021/06/23 10:01:08;;;;;;;26.33;5.45;;;;;;;36.17;38.30;100601.73;1772730;79;20976;-39
2021/06/23 10:03:56;;;;;;;32.58;5.70;;;;;;;36.29;37.08;100596.66;1767013;79;20924;-39
2021/06/23 10:06:35;;;;;;;19.75;5.30;;;;;;;36.32;36.71;100591.72;1747322;79;21008;-39
2021/06/23 10:09:25;;;;;;;22.37;5.83;;;;;;;36.41;37.26;100598.30;1768211;80;21085;-39
2021/06/23 10:11:54;;;;;;;23.73;5.78;;;;;;;36.57;36.79;100606.13;1768608;79;21031;-40
2021/06/23 10:14:22;;;;;;;51.13;7.03;;;;;;;36.65;36.64;100602.45;1749914;79;21109;-41
2021/06/23 10:16:53;;;;;;;27.25;6.08;;;;;;;36.66;36.49;100604.92;1770431;79;20969;-42
2021/06/23 10:19:20;;;;;;;32.98;5.95;;;;;;;36.60;37.15;100607.57;1780158;79;20994;-41
2021/06/23 10:21:46;;;;;;;32.33;6.17;;;;;;;36.70;34.85;100618.00;1784960;79;21098;-41
2021/06/23 10:24:14;;;;;;;23.32;6.50;;;;;;;36.63;34.83;100613.41;1766459;79;20947;-41
2021/06/23 10:26:49;;;;;;;27.93;6.03;;;;;;;36.53;34.63;100615.11;1769157;79;21028;-41
2021/06/23 10:29:21;;;;;;;26.30;6.75;;;;;;;36.56;36.00;100607.16;1772622;79;20941;-39
2021/06/23 10:31:48;;;;;;;38.23;6.47;;;;;;;36.61;36.38;100602.00;1750592;80;20996;-41
2021/06/23 10:34:16;;;;;;;32.93;6.87;;;;;;;36.65;34.38;100603.80;1768199;79;21147;-41
2021/06/23 10:36:44;;;;;;;22.82;6.25;;;;;;;36.51;35.16;100606.39;1764411;79;21584;-40
2021/06/23 10:39:11;;;;;;;28.65;6.20;;;;;;;36.47;34.74;100604.23;1785114;79;20971;-40
2021/06/23 10:41:46;;;;;;;29.63;5.65;;;;;;;36.32;34.13;100609.23;1774348;79;21019;-41
2021/06/23 10:44:21;;;;;;;30.50;5.75;;;;;;;36.16;34.58;100616.23;1781738;79;20915;-40
2021/06/23 10:46:58;;;;;;;26.68;6.03;;;;;;;36.15;35.13;100608.69;1774950;79;21116;-40
2021/06/23 10:49:53;;;;;;;29.30;5.72;;;;;;;36.32;34.53;100613.77;1773022;79;21131;-41
2021/06/23 10:52:28;;;;;;;25.70;5.78;;;;;;;36.37;35.85;100608.12;1772720;79;21462;-40
2021/06/23 10:54:58;;;;;;;27.75;5.40;;;;;;;36.61;35.27;100608.73;1753448;80;21125;-41
2021/06/23 10:57:36;;;;;;;33.63;6.00;;;;;;;36.78;35.08;100612.48;1766321;79;21586;-41
2021/06/23 11:00:12;;;;;;;29.12;6.25;;;;;;;36.83;34.75;100609.16;1768543;79;21263;-41
2021/06/23 11:02:41;;;;;;;23.80;6.08;;;;;;;36.86;35.08;100608.26;1760218;79;21016;-41
2021/06/23 11:05:10;;;;;;;42.45;6.40;;;;;;;36.92;34.39;100616.89;1773330;79;21548;-41
2021/06/23 11:07:51;;;;;;;31.27;7.00;;;;;;;36.86;34.09;100608.26;1762081;79;21010;-41
2021/06/23 11:10:28;;;;;;;32.60;6.12;;;;;;;36.82;34.39;100608.34;1766207;80;21566;-41
2021/06/23 11:13:06;;;;;;;32.15;6.83;;;;;;;36.92;34.79;100610.68;1774050;79;20972;-41
2021/06/23 11:15:38;;;;;;;26.97;6.60;;;;;;;37.06;35.32;100614.30;1772542;79;20995;-41
2021/06/23 11:18:22;;;;;;;26.12;5.55;;;;;;;37.19;33.74;100613.53;1763196;79;20992;-41
2021/06/23 11:20:53;;;;;;;24.50;5.12;;;;;;;37.16;34.19;100616.10;1771704;79;21057;-40
2021/06/23 11:23:42;;;;;;;32.33;6.05;;;;;;;37.28;31.99;100611.50;1769788;79;21035;-41
2021/06/23 11:26:23;;;;;;;30.90;5.92;;;;;;;37.22;34.74;100617.17;1777202;78;21533;-41
2021/06/23 11:29:00;;;;;;;33.58;5.17;;;;;;;37.38;34.00;100607.89;1755927;79;20995;-39
2021/06/23 11:31:46;;;;;;;33.23;4.87;;;;;;;37.54;31.79;100606.71;1769072;79;21497;-39
2021/06/23 11:34:43;;;;;;;23.12;5.55;;;;;;;37.52;34.25;100613.68;1780941;79;20889;-41
2021/06/23 11:37:17;;;;;;;33.05;5.65;;;;;;;37.66;33.45;100613.70;1774065;79;21090;-41
2021/06/23 11:39:44;;;;;;;30.37;5.97;;;;;;;37.65;32.30;100610.69;1778928;79;21063;-40
2021/06/23 11:42:11;;;;;;;21.25;5.92;;;;;;;37.57;32.12;100613.58;1785404;79;21022;-40
2021/06/23 11:44:39;;;;;;;29.40;6.05;;;;;;;37.45;32.36;100609.27;1769595;79;20976;-41
2021/06/23 11:47:07;;;;;;;44.65;6.47;;;;;;;37.45;33.52;100612.78;1778349;79;20931;-40
2021/06/23 11:49:34;;;;;;;51.30;7.72;;;;;;;37.42;33.40;100617.23;1694702;82;20944;-41
2021/06/23 11:52:03;;;;;;;40.58;6.20;;;;;;;37.41;33.59;100618.27;1729310;81;21762;-40
2021/06/23 11:54:31;;;;;;;30.20;5.90;;;;;;;37.29;32.94;100618.55;1720820;81;21869;-40
2021/06/23 11:56:58;;;;;;;37.90;7.20;;;;;;;37.11;33.22;100615.88;1731946;81;21074;-39
2021/06/23 11:59:24;;;;;;;38.45;6.80;;;;;;;36.99;33.46;100612.89;1719810;82;20992;-42
2021/06/23 12:01:51;;;;;;;34.48;6.58;;;;;;;36.96;32.67;100607.90;1707186;83;21052;-41
2021/06/23 12:04:18;;;;;;;26.07;6.17;;;;;;;36.88;33.82;100606.70;1772006;79;21316;-40
2021/06/23 12:06:44;;;;;;;30.52;5.53;;;;;;;36.88;33.93;100610.23;1767154;80;20861;-42
2021/06/23 12:09:11;;;;;;;29.07;5.35;;;;;;;36.79;34.62;100615.48;1763168;79;21027;-39
2021/06/23 12:11:38;;;;;;;41.10;6.15;;;;;;;36.72;34.37;100618.13;1758327;80;21004;-40
2021/06/23 12:14:04;;;;;;;21.82;5.83;;;;;;;36.69;34.45;100617.69;1778427;79;21007;-40
2021/06/23 12:16:31;;;;;;;30.45;5.72;;;;;;;36.67;35.51;100612.52;1750563;80;21956;-40
2021/06/23 12:18:58;;;;;;;26.50;5.22;;;;;;;36.59;36.30;100613.99;1769837;79;20927;-40
2021/06/23 12:21:25;;;;;;;34.20;6.97;;;;;;;36.61;35.94;100609.23;1762380;79;20987;-41
2021/06/23 12:23:51;;;;;;;33.67;6.45;;;;;;;36.77;35.93;100615.67;1783272;79;21007;-40
2021/06/23 12:26:22;;;;;;;31.90;6.47;;;;;;;36.97;36.06;100608.22;1786225;79;21000;-40
2021/06/23 12:28:46;;;;;;;48.05;6.83;;;;;;;36.93;34.67;100617.20;1759079;79;21235;-40
2021/06/23 12:31:13;;;;;;;29.67;6.17;;;;;;;36.91;34.19;100611.72;1761824;79;20973;-40
2021/06/23 12:33:40;;;;;;;36.05;6.75;;;;;;;37.02;35.05;100614.39;1756277;80;20949;-40
2021/06/23 12:36:07;;;;;;;40.70;6.65;;;;;;;37.12;34.75;100613.50;1763692;81;21435;-40
2021/06/23 12:38:33;;;;;;;74.03;7.22;;;;;;;37.28;34.41;100615.55;1754087;80;20988;-40
2021/06/23 12:41:00;;;;;;;44.75;6.17;;;;;;;37.49;34.43;100619.45;1768643;79;21952;-40
2021/06/23 12:43:29;;;;;;;37.58;6.55;;;;;;;37.70;35.03;100624.39;1771083;79;21007;-40
2021/06/23 12:45:55;;;;;;;34.27;6.30;;;;;;;37.81;33.88;100618.91;1787094;79;20911;-40
2021/06/23 12:48:22;;;;;;;40.95;5.97;;;;;;;37.68;32.87;100626.47;1779496;79;21083;-40
2021/06/23 12:50:50;;;;;;;34.38;6.33;;;;;;;37.62;33.58;100621.36;1768921;81;20952;-40
2021/06/23 12:53:16;;;;;;;21.00;5.33;;;;;;;37.50;33.26;100626.52;1738438;80;21147;-41
2021/06/23 12:55:43;;;;;;;34.55;7.10;;;;;;;37.45;33.56;100628.97;1771672;79;21067;-40
2021/06/23 12:58:09;;;;;;;37.42;6.83;;;;;;;37.30;33.97;100629.66;1780029;79;21036;-40
2021/06/23 13:00:36;;;;;;;43.65;7.62;;;;;;;37.27;33.40;100630.06;1773653;79;21159;-40
2021/06/23 13:03:03;;;;;;;53.25;8.50;;;;;;;37.16;33.92;100626.89;1778366;79;21023;-41
2021/06/23 13:05:29;;;;;;;56.95;8.33;;;;;;;37.37;34.17;100635.91;1784964;79;21132;-40
2021/06/23 13:07:57;;;;;;;58.38;7.53;;;;;;;37.61;33.80;100632.38;1710637;82;21333;-40
2021/06/23 13:10:24;;;;;;;74.35;8.38;;;;;;;37.50;34.10;100634.61;1696256;83;21032;-40
2021/06/23 13:12:51;;;;;;;49.50;6.80;;;;;;;37.52;34.65;100635.77;1733155;81;21554;-40
2021/06/23 13:15:20;;;;;;;33.23;6.62;;;;;;;37.74;34.05;100629.69;1738116;81;21512;-40
2021/06/23 13:17:47;;;;;;;32.95;6.65;;;;;;;37.88;34.34;100628.38;1739792;81;22058;-40
2021/06/23 13:20:20;;;;;;;33.63;6.47;;;;;;;37.92;32.79;100635.02;1746855;80;21512;-40
2021/06/23 13:22:42;;;;;;;34.60;6.12;;;;;;;38.05;32.98;100627.48;1725319;81;20920;-40
2021/06/23 13:25:12;;;;;;;38.63;6.58;;;;;;;38.18;32.66;100630.20;1721814;81;21039;-40
2021/06/23 13:27:39;;;;;;;28.77;6.92;;;;;;;38.34;31.79;100624.89;1763747;79;21059;-40
2021/06/23 13:30:07;;;;;;;34.75;6.60;;;;;;;38.43;32.85;100627.37;1752055;80;21135;-41
2021/06/23 13:32:34;;;;;;;33.78;6.05;;;;;;;38.40;32.62;100620.53;1765512;79;20964;-41
2021/06/23 13:35:00;;;;;;;21.85;6.30;;;;;;;38.55;32.17;100626.25;1775453;79;21003;-41
2021/06/23 13:37:27;;;;;;;32.17;6.33;;;;;;;38.73;32.22;100626.42;1769524;80;20964;-41
2021/06/23 13:39:54;;;;;;;32.73;6.50;;;;;;;38.85;30.98;100621.70;1782200;79;20923;-41
2021/06/23 13:42:20;;;;;;;36.30;5.92;;;;;;;38.74;32.38;100621.83;1774778;79;21154;-41
2021/06/23 13:44:47;;;;;;;34.33;6.22;;;;;;;38.64;32.85;100622.27;1755259;79;20917;-42
2021/06/23 13:47:13;;;;;;;45.23;7.25;;;;;;;38.71;31.80;100623.61;1768579;79;20993;-40
2021/06/23 13:49:41;;;;;;;105.20;9.08;;;;;;;38.81;32.03;100630.78;1786013;79;21040;-41
2021/06/23 13:52:07;;;;;;;48.90;7.05;;;;;;;38.93;31.47;100637.20;1755083;79;20990;-41
2021/06/23 13:54:34;;;;;;;32.90;5.83;;;;;;;39.04;33.24;100629.50;1765240;79;21149;-41
2021/06/23 13:57:01;;;;;;;33.55;6.45;;;;;;;39.24;32.32;100636.17;1753568;79;20945;-41
2021/06/23 13:59:27;;;;;;;28.75;6.78;;;;;;;39.51;31.56;100636.87;1768961;79;21042;-42
2021/06/23 14:01:54;;;;;;;38.50;6.78;;;;;;;39.61;30.76;100636.41;1750001;80;21052;-41
2021/06/23 14:04:21;;;;;;;39.38;7.10;;;;;;;39.45;31.43;100637.75;1770936;79;20933;-40
2021/06/23 14:06:47;;;;;;;31.77;6.10;;;;;;;39.29;31.42;100639.05;1759135;79;21809;-39
2021/06/23 14:09:15;;;;;;;34.80;6.70;;;;;;;39.18;30.84;100635.68;1774008;79;20968;-40
2021/06/23 14:11:42;;;;;;;31.75;5.70;;;;;;;38.99;30.69;100636.05;1758927;79;21587;-40
2021/06/23 14:14:09;;;;;;;37.40;7.00;;;;;;;38.84;30.79;100634.91;1778247;79;21548;-40
2021/06/23 14:16:35;;;;;;;44.35;6.90;;;;;;;38.68;31.47;100637.05;1762574;79;21613;-41